Jump to content

  •  

DELTA AIRLINES FLIGHT DL195 FLOWN ON 09-21-2017 BY CAPTAIN JIM BOERMAN

Pilot StatsCaptain Jim Boerman (LDP136) • 4,686.4 total hours • 1,423 total flights [View Logbook]
FLIGHT DETAILS
StatusReceived and approved on 2017-09-21 at 12:09:09
Origin AirportPhiladelphia Intl (KPHL) • Philadelphia, Pennsylvania, United States (36 feet MSL)
Filed Flight PlanKPHL BYRDD J230 LARRI J110 BEETS Q480 LEJOY J518 DJB J34 CRL J584 OBK J84 COTON J94 VIGGR J82 FOD Q122 ONL J94 OCS J202 ODUCE KSLC
Destination AirportSalt Lake City Intl (KSLC) • Salt Lake City, Utah, United States (4,226 feet MSL)
Alternate AirportEvanston-Uinta Co Burns (KEVW) • Evanston, Wyoming, United States (7,161 feet MSL)
AirlineDelta Airlines
AircraftBoeing 757-200 | Winglets (75W / B757-200)
FS Aircraft UsedQWSim Boeing 757-200WL Delta N688DL QWHDT
Cruising AltitudeFL340
Distance Flown1,670 nautical miles
Passengers Onboard99 passengers (53.23% full)
DEPARTURE DETAILS
Time Out07:50:04
Taxi Data196,500 lbs total with 34,979 lbs of fuel onboard
Takeoff Data08:05:46 (16 minutes after leaving gate/ramp) • 194,698 lbs total • 5° pitch at 162 knots
Departure METARKPHL 211054Z 36008KT 10SM BKN065 BKN110 BKN250 23/17 A3003 RMK AO2 SLP167 T02280167 $
ARRIVAL DETAILS
Landing Data10:14:44 • 165,147 lbs total • 3° pitch doing 124 knots at a rate of -122.26 feet/minute with 3,103 lbs of fuel onboard
Time In10:20:41 (6 minutes after landing)
Ramp Weight164,624 lbs total
Total Fuel Used31,876 lbs
Total Block Time04:24:33 (4.4 hours) while 22 minutes were spent on the ground
Arrival METARKSLC 211554Z 34009KT 10SM FEW025 BKN037 BKN060 13/06 A2977 RMK AO2 SLP043 T01280056
MISCELLANEOUS DETAILS
LiveDISPATCH Version4.8.3.1
FS Version
FSUIPC Version4.93
OS VersionWindows 7 32-bit
Screen Resolution1920 x 1080
Pilot's CommentsNo Comments Reported
FLIGHT MAP